Time;durP1;ratioP1;P1;durP2;ratioP2;P2;SDS_P1;SDS_P2;PMS_P1;PMS_P2;Temp;Humidity;BMP_temperature;BMP_pressure;BME280_temperature;BME280_humidity;BME280_pressure;Samples;Min_cycle;Max_cycle;Signal;HPM_P1;HPM_P2
2023/08/16 00:01:50;;;;;;;3.60;3.30;;;22.00;99.90;;;;;;5154944;28;20220;-46
2023/08/16 00:04:21;;;;;;;5.10;3.57;;;22.00;99.90;;;;;;5145847;28;20241;-44
2023/08/16 00:06:52;;;;;;;3.47;3.27;;;22.00;99.90;;;;;;5146974;28;20244;-45
2023/08/16 00:09:22;;;;;;;3.50;3.30;;;22.00;99.90;;;;;;5136305;28;20189;-45
2023/08/16 00:11:53;;;;;;;4.37;3.90;;;22.00;99.90;;;;;;5144256;28;20265;-47
2023/08/16 00:14:24;;;;;;;3.57;3.27;;;22.00;99.90;;;;;;5135155;28;20200;-46
2023/08/16 00:16:54;;;;;;;3.57;3.27;;;22.10;99.90;;;;;;5137347;28;20211;-45
2023/08/16 00:19:25;;;;;;;6.00;3.40;;;22.00;99.90;;;;;;5137991;28;20218;-45
2023/08/16 00:21:56;;;;;;;4.53;4.10;;;22.10;99.90;;;;;;5149914;28;20206;-47
2023/08/16 00:24:27;;;;;;;4.47;4.07;;;22.00;99.90;;;;;;5143199;28;20254;-46
2023/08/16 00:26:58;;;;;;;3.23;3.03;;;22.10;99.90;;;;;;5144956;28;20248;-47
2023/08/16 00:29:28;;;;;;;6.67;3.80;;;22.00;99.90;;;;;;5146933;28;20786;-46
2023/08/16 00:32:02;;;;;;;3.87;3.57;;;22.00;99.90;;;;;;5141212;28;20312;-45
2023/08/16 00:34:33;;;;;;;6.10;3.63;;;22.00;99.90;;;;;;5150161;28;20204;-45
2023/08/16 00:37:04;;;;;;;5.03;3.70;;;21.90;99.90;;;;;;5148549;28;20456;-46
2023/08/16 00:39:34;;;;;;;7.83;3.63;;;21.90;99.90;;;;;;5144082;28;20651;-47
2023/08/16 00:42:05;;;;;;;2.93;2.80;;;21.90;99.90;;;;;;5139085;28;20690;-45
2023/08/16 00:44:36;;;;;;;8.37;4.47;;;21.90;99.90;;;;;;5141692;28;20187;-46
2023/08/16 00:47:07;;;;;;;4.23;3.83;;;21.80;99.90;;;;;;5142344;28;20228;-45
2023/08/16 00:49:40;;;;;;;5.37;3.30;;;21.80;99.90;;;;;;5131526;28;20659;-46
2023/08/16 00:52:11;;;;;;;3.30;3.20;;;21.80;99.90;;;;;;5150131;28;20486;-45
2023/08/16 00:54:41;;;;;;;3.00;2.90;;;21.70;99.90;;;;;;5157515;28;20472;-46
2023/08/16 00:57:12;;;;;;;5.50;3.20;;;21.70;99.90;;;;;;5151216;28;20198;-46
2023/08/16 00:59:44;;;;;;;5.23;4.53;;;21.80;99.90;;;;;;5135897;28;20632;-46
2023/08/16 01:02:17;;;;;;;8.67;3.83;;;21.70;99.90;;;;;;5142877;28;20220;-46
2023/08/16 01:04:49;;;;;;;5.43;3.50;;;21.70;99.90;;;;;;5146360;28;20437;-44
2023/08/16 01:07:19;;;;;;;11.83;5.17;;;21.70;99.90;;;;;;5148365;28;20910;-46
2023/08/16 01:09:50;;;;;;;3.83;3.53;;;21.70;99.90;;;;;;5135842;28;20422;-46
2023/08/16 01:12:35;;;;;;;4.03;3.60;;;21.80;99.90;;;;;;5148721;28;20280;-47
2023/08/16 01:15:22;;;;;;;3.57;3.40;;;21.80;99.90;;;;;;5151255;28;20216;-47
2023/08/16 01:17:54;;;;;;;3.67;3.37;;;21.80;99.90;;;;;;5143025;28;20524;-45
2023/08/16 01:20:27;;;;;;;4.13;3.70;;;21.70;99.90;;;;;;5153867;28;20518;-46
2023/08/16 01:23:04;;;;;;;4.00;3.70;;;21.70;99.90;;;;;;5151807;28;20429;-46
2023/08/16 01:25:58;;;;;;;6.40;3.40;;;21.70;99.90;;;;;;5154728;28;20436;-46
2023/08/16 01:28:31;;;;;;;4.57;4.17;;;21.70;99.90;;;;;;5149150;28;20476;-46
2023/08/16 01:31:04;;;;;;;8.63;3.93;;;21.70;99.90;;;;;;5150597;28;20482;-46
2023/08/16 01:33:35;;;;;;;4.47;4.13;;;21.70;99.90;;;;;;5135428;28;20451;-46
2023/08/16 01:36:05;;;;;;;5.67;4.50;;;21.60;99.90;;;;;;5150588;28;20470;-45
2023/08/16 01:38:36;;;;;;;4.70;4.30;;;21.70;99.90;;;;;;5158853;28;20181;-45
2023/08/16 01:41:35;;;;;;;4.40;4.20;;;21.70;99.90;;;;;;5133560;28;20229;-45
2023/08/16 01:44:08;;;;;;;4.10;3.80;;;21.70;99.90;;;;;;5143632;28;20185;-46
2023/08/16 01:46:40;;;;;;;5.17;4.50;;;21.70;99.90;;;;;;5145463;28;20493;-46
2023/08/16 01:49:12;;;;;;;6.27;4.67;;;21.60;99.90;;;;;;5150378;28;20437;-46
2023/08/16 01:51:43;;;;;;;4.90;4.50;;;21.60;99.90;;;;;;5145160;28;20456;-47
2023/08/16 01:54:13;;;;;;;5.00;4.60;;;21.50;99.90;;;;;;5144668;28;20437;-47
2023/08/16 01:56:44;;;;;;;7.83;4.63;;;21.50;99.90;;;;;;5124969;28;20471;-46
2023/08/16 01:59:15;;;;;;;4.50;4.20;;;21.50;99.90;;;;;;5146392;28;20604;-49
2023/08/16 02:01:45;;;;;;;4.33;3.93;;;21.40;99.90;;;;;;5155961;28;20194;-46
2023/08/16 02:04:16;;;;;;;6.97;4.73;;;21.40;99.90;;;;;;5142130;28;20542;-48
2023/08/16 02:06:47;;;;;;;4.90;4.50;;;21.30;99.90;;;;;;5131408;28;20268;-46
2023/08/16 02:09:19;;;;;;;5.93;5.03;;;21.30;99.90;;;;;;5123106;28;20551;-46
2023/08/16 02:11:49;;;;;;;4.80;4.43;;;21.20;99.90;;;;;;5133218;28;20237;-45
2023/08/16 02:14:20;;;;;;;6.93;4.10;;;21.20;99.90;;;;;;5137609;28;20480;-45
2023/08/16 02:16:51;;;;;;;4.07;3.77;;;21.20;99.90;;;;;;5149309;28;20198;-46
2023/08/16 02:19:22;;;;;;;7.53;5.80;;;21.20;99.90;;;;;;5156493;28;20188;-46
2023/08/16 02:21:52;;;;;;;5.57;4.90;;;21.20;99.90;;;;;;5146256;28;20279;-46
2023/08/16 02:24:23;;;;;;;5.70;5.20;;;21.20;99.90;;;;;;5138314;28;20238;-45
2023/08/16 02:26:54;;;;;;;8.13;5.97;;;21.20;99.90;;;;;;5134727;28;20587;-49
2023/08/16 02:29:24;;;;;;;9.17;5.77;;;21.20;99.90;;;;;;5140209;28;20189;-45
2023/08/16 02:31:56;;;;;;;8.33;6.07;;;21.20;99.90;;;;;;5135066;28;20306;-44
2023/08/16 02:34:27;;;;;;;5.00;4.57;;;21.20;99.90;;;;;;5160143;28;20620;-46
2023/08/16 02:36:58;;;;;;;6.07;5.57;;;21.10;99.90;;;;;;5143287;28;20468;-44
2023/08/16 02:39:30;;;;;;;14.53;6.13;;;21.10;99.90;;;;;;5142736;28;20558;-45
2023/08/16 02:42:00;;;;;;;6.73;5.77;;;21.10;99.90;;;;;;5143777;28;20244;-46
2023/08/16 02:44:31;;;;;;;5.87;4.90;;;21.10;99.90;;;;;;5129931;28;20438;-46
2023/08/16 02:47:02;;;;;;;7.10;5.37;;;21.10;99.90;;;;;;5139716;28;20183;-45
2023/08/16 02:49:33;;;;;;;6.57;5.30;;;21.10;99.90;;;;;;5137147;28;20186;-46
2023/08/16 02:52:04;;;;;;;10.50;6.00;;;21.10;99.90;;;;;;5145339;28;20213;-45
2023/08/16 02:54:34;;;;;;;6.47;5.67;;;21.20;99.90;;;;;;5144179;28;20193;-47
2023/08/16 02:57:05;;;;;;;6.80;5.47;;;21.20;99.90;;;;;;5127873;28;20553;-47
2023/08/16 02:59:40;;;;;;;6.87;6.03;;;21.30;99.90;;;;;;5129072;28;20181;-47
2023/08/16 03:02:11;;;;;;;10.20;6.70;;;21.30;99.90;;;;;;5139139;28;20206;-45
2023/08/16 03:04:42;;;;;;;7.73;5.70;;;21.20;99.90;;;;;;5141712;28;20729;-47
2023/08/16 03:07:12;;;;;;;7.20;6.50;;;21.30;99.90;;;;;;5146482;28;20666;-46
2023/08/16 03:09:43;;;;;;;6.47;5.80;;;21.30;99.90;;;;;;5142020;28;20232;-46
2023/08/16 03:12:14;;;;;;;8.33;7.40;;;21.30;99.90;;;;;;5137799;28;20605;-46
2023/08/16 03:14:45;;;;;;;8.60;6.57;;;21.40;99.90;;;;;;5133865;28;20237;-46
2023/08/16 03:17:16;;;;;;;9.23;6.77;;;21.40;99.90;;;;;;5127943;28;20206;-45
2023/08/16 03:19:47;;;;;;;10.77;6.80;;;21.40;99.90;;;;;;5137703;28;20283;-46
2023/08/16 03:22:18;;;;;;;7.50;6.80;;;21.30;99.90;;;;;;5161855;28;20527;-45
2023/08/16 03:24:49;;;;;;;12.60;6.60;;;21.30;99.90;;;;;;5134239;28;20197;-46
2023/08/16 03:27:20;;;;;;;7.60;7.00;;;21.30;99.90;;;;;;5143759;28;20213;-45
2023/08/16 03:29:51;;;;;;;7.10;6.50;;;21.40;99.90;;;;;;5141446;28;20791;-46
2023/08/16 03:32:21;;;;;;;7.60;6.73;;;21.30;99.90;;;;;;5139222;28;20206;-45
2023/08/16 03:34:52;;;;;;;8.03;6.90;;;21.20;99.90;;;;;;5152379;28;20194;-46
2023/08/16 03:37:23;;;;;;;6.27;5.87;;;21.20;99.90;;;;;;5156335;28;20351;-46
2023/08/16 03:39:54;;;;;;;7.70;7.00;;;21.20;99.90;;;;;;5137322;28;20178;-46
2023/08/16 03:42:25;;;;;;;8.50;7.60;;;21.20;99.90;;;;;;5151290;28;20204;-46
2023/08/16 03:44:55;;;;;;;9.23;8.23;;;21.20;99.90;;;;;;5141275;28;20524;-46
2023/08/16 03:47:26;;;;;;;11.70;7.77;;;21.10;99.90;;;;;;5128925;28;20214;-46
2023/08/16 03:49:59;;;;;;;16.40;7.80;;;21.10;99.90;;;;;;5145579;28;20196;-45
2023/08/16 03:52:30;;;;;;;7.40;6.70;;;21.00;99.90;;;;;;5128162;28;20205;-46
2023/08/16 03:55:00;;;;;;;7.97;6.57;;;21.00;99.90;;;;;;5124573;28;20500;-46
2023/08/16 03:57:31;;;;;;;10.80;7.87;;;21.00;99.90;;;;;;5130092;28;20699;-45
2023/08/16 04:00:04;;;;;;;19.60;9.30;;;21.00;99.90;;;;;;5142707;28;20214;-46
2023/08/16 04:02:35;;;;;;;9.03;7.40;;;20.90;99.90;;;;;;5149232;28;20563;-45
2023/08/16 04:05:11;;;;;;;8.17;6.90;;;21.00;99.90;;;;;;5143335;28;20505;-46
2023/08/16 04:07:42;;;;;;;8.17;7.20;;;21.00;99.90;;;;;;5145681;28;20213;-46
2023/08/16 04:10:13;;;;;;;9.23;8.20;;;21.00;99.90;;;;;;5116534;28;20448;-47
2023/08/16 04:12:43;;;;;;;9.70;7.87;;;21.00;99.90;;;;;;5133996;28;20646;-46
2023/08/16 04:15:14;;;;;;;8.50;7.60;;;21.10;99.90;;;;;;5141847;28;20694;-46
2023/08/16 04:17:45;;;;;;;9.33;8.13;;;21.10;99.90;;;;;;5138899;28;20241;-46
2023/08/16 04:20:15;;;;;;;7.63;7.03;;;21.20;99.90;;;;;;5141229;28;20648;-45
2023/08/16 04:22:46;;;;;;;11.37;7.87;;;21.20;99.90;;;;;;5130451;28;20651;-46
2023/08/16 04:25:17;;;;;;;9.57;8.50;;;21.20;99.90;;;;;;5140938;28;20228;-46
2023/08/16 04:27:47;;;;;;;7.63;6.90;;;21.20;99.90;;;;;;5156137;28;20197;-47
2023/08/16 04:30:18;;;;;;;10.23;8.90;;;21.20;99.90;;;;;;5117899;28;20189;-48
2023/08/16 04:32:49;;;;;;;14.93;8.13;;;21.20;99.90;;;;;;5124956;28;20189;-47
2023/08/16 04:35:20;;;;;;;13.53;8.10;;;21.10;99.90;;;;;;5156556;28;20185;-46
2023/08/16 04:37:50;;;;;;;8.43;7.60;;;21.10;99.90;;;;;;5143870;28;20667;-47
2023/08/16 04:40:21;;;;;;;8.10;7.30;;;21.10;99.90;;;;;;5141081;28;20181;-47
2023/08/16 04:42:52;;;;;;;8.90;8.10;;;21.20;99.90;;;;;;5140079;28;20185;-46
2023/08/16 04:45:22;;;;;;;10.03;8.77;;;21.20;99.90;;;;;;5129648;28;20655;-46
2023/08/16 04:47:53;;;;;;;10.93;8.03;;;21.20;99.90;;;;;;5144508;28;20280;-46
2023/08/16 04:50:24;;;;;;;9.67;8.63;;;21.20;99.90;;;;;;5141310;28;20197;-45
2023/08/16 04:52:54;;;;;;;11.27;7.47;;;21.30;99.90;;;;;;5142677;28;20185;-45
2023/08/16 04:55:25;;;;;;;10.83;8.43;;;21.30;99.90;;;;;;5130091;28;20186;-47
2023/08/16 04:57:56;;;;;;;11.03;7.10;;;21.40;99.90;;;;;;5142515;28;20743;-47
2023/08/16 05:00:26;;;;;;;8.27;7.30;;;21.50;99.90;;;;;;5139225;28;20256;-46
2023/08/16 05:02:57;;;;;;;8.20;7.50;;;21.60;99.90;;;;;;5142603;28;20189;-45
2023/08/16 05:05:28;;;;;;;14.20;9.20;;;21.60;99.90;;;;;;5128520;28;20260;-47
2023/08/16 05:07:59;;;;;;;12.70;9.13;;;21.60;99.90;;;;;;5143705;28;20182;-49
2023/08/16 05:10:29;;;;;;;12.50;8.93;;;21.70;99.90;;;;;;5127443;28;20204;-47
2023/08/16 05:13:00;;;;;;;10.23;8.33;;;21.90;99.90;;;;;;5139853;28;20188;-46
2023/08/16 05:15:31;;;;;;;7.30;6.60;;;22.10;99.90;;;;;;5143253;28;20183;-47
2023/08/16 05:18:01;;;;;;;9.53;8.40;;;22.30;99.90;;;;;;5142237;28;20670;-46
2023/08/16 05:20:35;;;;;;;8.50;7.37;;;22.50;99.90;;;;;;5128764;28;20296;-46
2023/08/16 05:23:05;;;;;;;12.80;8.87;;;22.60;99.90;;;;;;5130560;28;20177;-45
2023/08/16 05:25:37;;;;;;;13.80;8.83;;;22.60;99.90;;;;;;5148142;28;20429;-48
2023/08/16 05:28:08;;;;;;;11.73;8.90;;;22.40;99.90;;;;;;5145748;28;20178;-46
2023/08/16 05:30:39;;;;;;;9.80;8.20;;;22.30;99.90;;;;;;5143250;28;20456;-46
2023/08/16 05:33:09;;;;;;;8.30;7.50;;;22.20;99.90;;;;;;5146387;28;20233;-47
2023/08/16 05:35:40;;;;;;;13.60;8.17;;;22.20;99.90;;;;;;5146763;28;20196;-47
2023/08/16 05:38:11;;;;;;;9.00;7.10;;;22.20;99.90;;;;;;5127645;28;21681;-47
2023/08/16 05:40:41;;;;;;;16.07;9.10;;;22.20;99.90;;;;;;5147384;28;20202;-46
2023/08/16 05:43:12;;;;;;;16.67;8.90;;;22.20;99.90;;;;;;5142145;28;20175;-48
2023/08/16 05:45:43;;;;;;;12.37;9.10;;;22.20;99.90;;;;;;5129776;28;20188;-46
2023/08/16 05:48:13;;;;;;;22.63;9.47;;;22.20;99.90;;;;;;5144379;28;20198;-46
2023/08/16 05:50:44;;;;;;;10.50;8.43;;;22.20;99.90;;;;;;5144358;28;20193;-46
2023/08/16 05:53:15;;;;;;;9.87;8.40;;;22.30;99.90;;;;;;5144981;28;20249;-46
2023/08/16 05:55:46;;;;;;;9.83;8.57;;;22.50;99.90;;;;;;5142093;28;20217;-46
2023/08/16 05:58:16;;;;;;;9.83;8.80;;;22.30;99.90;;;;;;5116769;28;20221;-45
2023/08/16 06:00:47;;;;;;;9.93;8.53;;;22.30;99.90;;;;;;5145309;28;20205;-46
2023/08/16 06:03:18;;;;;;;14.00;9.40;;;22.40;99.90;;;;;;5129721;28;20225;-47
2023/08/16 06:05:49;;;;;;;14.13;9.37;;;22.50;99.90;;;;;;5142798;28;20448;-47
2023/08/16 06:08:20;;;;;;;15.23;8.67;;;22.60;99.90;;;;;;5138010;28;20200;-47
2023/08/16 06:10:50;;;;;;;11.30;9.37;;;22.70;99.90;;;;;;5127402;28;20217;-46
2023/08/16 06:13:21;;;;;;;11.40;9.10;;;23.00;99.90;;;;;;5147871;28;20217;-47
2023/08/16 06:15:52;;;;;;;10.43;8.20;;;23.00;99.90;;;;;;5127324;28;20206;-46
2023/08/16 06:18:23;;;;;;;10.20;8.00;;;23.20;99.90;;;;;;5129647;28;20182;-48
2023/08/16 06:20:53;;;;;;;9.17;6.70;;;24.40;99.90;;;;;;5130187;28;20225;-46
2023/08/16 06:23:24;;;;;;;12.03;6.43;;;26.30;99.90;;;;;;5126500;28;20234;-48
2023/08/16 06:25:55;;;;;;;6.93;5.13;;;27.40;99.90;;;;;;5148094;28;20194;-46
2023/08/16 06:28:25;;;;;;;8.30;5.60;;;28.60;99.90;;;;;;5127697;28;20192;-49
2023/08/16 06:30:56;;;;;;;4.57;4.10;;;30.80;99.90;;;;;;5142051;28;20209;-48
2023/08/16 06:33:27;;;;;;;11.57;4.10;;;33.20;95.50;;;;;;5124768;28;20257;-49
2023/08/16 06:35:58;;;;;;;4.80;4.40;;;34.90;81.30;;;;;;5135663;28;20216;-49
2023/08/16 06:38:29;;;;;;;4.13;3.83;;;35.40;64.70;;;;;;5127358;28;20182;-48
2023/08/16 06:41:00;;;;;;;5.13;4.40;;;36.20;61.80;;;;;;5127376;28;20216;-49
2023/08/16 06:43:31;;;;;;;6.23;3.33;;;35.60;59.20;;;;;;5145100;28;20243;-48
2023/08/16 06:46:01;;;;;;;3.73;3.43;;;33.80;61.00;;;;;;5133061;28;20572;-48
2023/08/16 06:48:32;;;;;;;3.47;3.20;;;32.00;65.20;;;;;;5115517;28;20224;-47
2023/08/16 06:51:04;;;;;;;4.93;3.00;;;30.80;69.60;;;;;;5128071;28;20296;-47
2023/08/16 06:53:38;;;;;;;4.33;3.93;;;29.90;74.00;;;;;;5132613;28;20190;-47
2023/08/16 06:56:09;;;;;;;5.13;4.13;;;29.20;77.20;;;;;;5140069;28;20291;-48
2023/08/16 06:58:41;;;;;;;6.20;4.33;;;28.60;82.90;;;;;;5128625;28;21008;-48
2023/08/16 07:01:12;;;;;;;4.40;4.03;;;28.20;87.00;;;;;;5137087;28;20255;-47
2023/08/16 07:03:43;;;;;;;8.73;3.90;;;27.60;90.30;;;;;;5128951;28;20484;-46
2023/08/16 07:06:14;;;;;;;4.10;3.80;;;27.00;93.60;;;;;;5142959;28;20554;-49
2023/08/16 07:08:45;;;;;;;4.27;3.93;;;27.10;96.70;;;;;;5143073;28;20275;-48
2023/08/16 07:11:16;;;;;;;9.50;4.27;;;27.70;95.70;;;;;;5142526;28;21690;-47
2023/08/16 07:13:47;;;;;;;7.30;4.80;;;27.80;96.00;;;;;;5146450;28;20196;-54
2023/08/16 07:16:18;;;;;;;4.57;4.20;;;27.90;96.00;;;;;;5140610;28;20287;-47
2023/08/16 07:18:49;;;;;;;5.87;4.00;;;28.30;95.80;;;;;;5143440;28;20441;-46
2023/08/16 07:21:20;;;;;;;5.17;3.60;;;29.00;93.60;;;;;;5126298;28;20531;-49
2023/08/16 07:23:50;;;;;;;4.63;4.33;;;29.40;92.60;;;;;;5137994;28;20608;-47
2023/08/16 07:26:21;;;;;;;4.93;3.57;;;29.80;91.50;;;;;;5137598;28;20183;-47
2023/08/16 07:28:52;;;;;;;10.83;3.60;;;30.50;90.20;;;;;;5126240;28;20267;-48
2023/08/16 07:31:23;;;;;;;3.20;3.03;;;31.80;82.90;;;;;;5124178;28;20200;-47
2023/08/16 07:33:53;;;;;;;9.07;3.53;;;34.00;74.60;;;;;;5123748;28;20180;-48
2023/08/16 07:36:24;;;;;;;3.88;3.53;;;35.80;61.80;;;;;;5117625;28;20216;-49
2023/08/16 07:38:55;;;;;;;6.43;4.00;;;37.70;55.80;;;;;;5128101;28;20193;-48
2023/08/16 07:41:26;;;;;;;16.77;3.90;;;39.60;50.40;;;;;;5124908;28;20209;-50
2023/08/16 07:43:56;;;;;;;3.13;2.90;;;41.20;44.40;;;;;;5140841;28;20574;-48
2023/08/16 07:46:27;;;;;;;3.58;2.83;;;40.80;43.60;;;;;;5137694;28;20209;-51
2023/08/16 07:48:58;;;;;;;4.82;3.25;;;39.60;44.00;;;;;;5141968;28;20185;-49
2023/08/16 07:51:28;;;;;;;3.10;2.90;;;37.10;47.40;;;;;;5126853;28;20264;-48
2023/08/16 07:53:59;;;;;;;6.32;4.55;;;35.10;51.30;;;;;;5138248;28;20630;-48
2023/08/16 07:56:30;;;;;;;3.95;3.58;;;34.40;53.70;;;;;;5146960;28;20193;-47
2023/08/16 07:59:00;;;;;;;4.80;2.95;;;35.30;52.50;;;;;;5132038;28;20192;-47
2023/08/16 08:01:31;;;;;;;4.45;3.22;;;35.30;51.40;;;;;;5127156;28;20250;-48
2023/08/16 08:04:02;;;;;;;3.63;3.40;;;35.10;51.60;;;;;;5134688;28;20757;-50
2023/08/16 08:06:33;;;;;;;6.65;2.67;;;34.10;53.70;;;;;;5127235;28;20654;-47
2023/08/16 08:09:04;;;;;;;3.30;2.80;;;32.60;55.10;;;;;;5145366;28;20216;-50
2023/08/16 08:11:37;;;;;;;3.47;3.17;;;31.30;58.10;;;;;;5126177;28;20213;-48
2023/08/16 08:14:07;;;;;;;3.33;3.00;;;30.40;60.90;;;;;;5145249;28;20934;-47
2023/08/16 08:16:38;;;;;;;30.00;3.63;;;30.40;61.20;;;;;;5145735;28;20288;-48
2023/08/16 08:19:09;;;;;;;3.70;3.50;;;30.80;61.00;;;;;;5144774;28;20244;-45
2023/08/16 08:21:40;;;;;;;3.50;3.30;;;30.50;62.20;;;;;;5139458;28;20214;-50
2023/08/16 08:24:11;;;;;;;3.43;3.13;;;29.90;63.60;;;;;;5140942;28;20187;-46
2023/08/16 08:26:43;;;;;;;4.10;3.80;;;29.50;64.80;;;;;;5138879;28;20281;-47
2023/08/16 08:29:13;;;;;;;3.17;2.87;;;29.10;66.70;;;;;;5139177;28;20189;-47
2023/08/16 08:31:44;;;;;;;6.30;3.53;;;28.80;68.20;;;;;;5135438;28;20464;-47
2023/08/16 08:34:16;;;;;;;4.43;3.43;;;28.60;68.20;;;;;;5144178;28;20709;-49
2023/08/16 08:36:47;;;;;;;4.73;2.83;;;28.50;69.20;;;;;;5131214;28;20224;-47
2023/08/16 08:39:19;;;;;;;6.80;3.00;;;28.30;70.30;;;;;;5149002;28;20428;-49
2023/08/16 08:41:50;;;;;;;2.93;2.67;;;28.70;70.80;;;;;;5132932;28;20675;-47
2023/08/16 08:44:24;;;;;;;2.27;2.13;;;28.70;68.50;;;;;;5147822;28;20491;-49
2023/08/16 08:46:55;;;;;;;2.80;2.60;;;29.00;69.20;;;;;;5147983;28;20690;-48
2023/08/16 08:49:26;;;;;;;2.73;2.50;;;29.30;66.60;;;;;;5144180;28;20528;-48
2023/08/16 08:51:58;;;;;;;4.70;3.07;;;29.40;66.80;;;;;;5150300;28;20344;-48
2023/08/16 08:54:28;;;;;;;3.33;2.00;;;29.50;66.90;;;;;;5137106;28;20440;-49
2023/08/16 08:56:59;;;;;;;3.50;2.40;;;29.10;68.20;;;;;;5142465;28;20465;-49
2023/08/16 08:59:33;;;;;;;2.07;1.90;;;29.00;68.70;;;;;;5133901;28;20197;-50
2023/08/16 09:02:05;;;;;;;8.23;3.50;;;29.20;68.40;;;;;;5140783;28;20210;-48
2023/08/16 09:04:36;;;;;;;3.20;2.40;;;29.20;68.50;;;;;;5141231;28;20879;-48
2023/08/16 09:07:07;;;;;;;3.43;3.00;;;29.20;66.90;;;;;;5138995;28;20810;-47
2023/08/16 09:09:39;;;;;;;2.33;2.23;;;29.00;67.50;;;;;;5146341;28;20447;-47
2023/08/16 09:12:14;;;;;;;5.97;2.47;;;29.00;67.90;;;;;;5144474;28;20829;-48
2023/08/16 09:14:45;;;;;;;2.40;2.30;;;28.60;68.20;;;;;;5145481;28;20549;-49
2023/08/16 09:17:17;;;;;;;4.20;2.37;;;28.00;69.70;;;;;;5143659;28;21777;-47
2023/08/16 09:19:48;;;;;;;2.63;2.43;;;27.60;71.30;;;;;;5143349;28;20542;-47
2023/08/16 09:22:20;;;;;;;2.50;2.30;;;27.50;72.00;;;;;;5146822;28;20458;-47
2023/08/16 09:24:55;;;;;;;3.80;2.87;;;27.30;72.10;;;;;;5145293;28;20205;-48
2023/08/16 09:27:26;;;;;;;3.00;2.77;;;27.10;73.70;;;;;;5141838;28;20947;-48
2023/08/16 09:29:57;;;;;;;2.93;2.60;;;27.10;74.30;;;;;;5127202;28;20499;-47
2023/08/16 09:32:32;;;;;;;2.87;2.67;;;27.20;74.50;;;;;;5130928;28;20612;-46
2023/08/16 09:35:04;;;;;;;3.67;3.37;;;27.00;74.80;;;;;;5145020;28;20181;-47
2023/08/16 09:37:34;;;;;;;2.37;2.27;;;26.80;75.90;;;;;;5128984;28;20456;-46
2023/08/16 09:40:06;;;;;;;3.40;2.40;;;26.80;76.60;;;;;;5139711;28;20433;-48
2023/08/16 09:42:37;;;;;;;3.13;2.93;;;27.10;77.30;;;;;;5146452;28;20206;-47
2023/08/16 09:45:08;;;;;;;3.30;3.00;;;27.00;77.00;;;;;;5142937;28;20528;-46
2023/08/16 09:47:45;;;;;;;2.93;2.70;;;26.60;79.10;;;;;;5130022;28;20236;-49
2023/08/16 09:50:21;;;;;;;2.80;2.60;;;26.60;80.80;;;;;;5141002;28;20189;-48
2023/08/16 09:52:52;;;;;;;2.70;2.60;;;26.70;80.90;;;;;;5130534;28;20429;-47
2023/08/16 09:55:26;;;;;;;2.93;2.43;;;27.00;79.80;;;;;;5139084;28;20934;-46
2023/08/16 09:57:58;;;;;;;2.00;1.90;;;27.20;79.30;;;;;;5136903;28;20210;-48
2023/08/16 10:00:30;;;;;;;2.50;2.30;;;27.40;78.80;;;;;;5127627;28;20549;-46
2023/08/16 10:03:01;;;;;;;2.63;2.50;;;27.40;77.80;;;;;;5141353;28;20555;-47
2023/08/16 10:05:32;;;;;;;3.20;2.40;;;27.30;78.70;;;;;;5130859;28;20441;-47
2023/08/16 10:08:05;;;;;;;2.67;2.53;;;27.10;79.00;;;;;;5142156;28;20495;-48
2023/08/16 10:10:37;;;;;;;3.93;2.40;;;26.70;80.00;;;;;;5129140;28;20231;-46
2023/08/16 10:13:09;;;;;;;3.20;2.67;;;26.60;82.40;;;;;;5144772;28;20818;-49
2023/08/16 10:15:45;;;;;;;2.67;2.57;;;26.50;84.10;;;;;;5142994;28;20464;-47
2023/08/16 10:18:18;;;;;;;2.50;2.40;;;26.60;83.00;;;;;;5137539;28;21181;-46
2023/08/16 10:20:53;;;;;;;8.37;2.33;;;26.70;84.40;;;;;;5121622;28;20477;-48
2023/08/16 10:23:25;;;;;;;2.67;2.57;;;26.90;84.20;;;;;;5139393;28;20448;-47
2023/08/16 10:26:00;;;;;;;2.67;1.97;;;27.00;83.10;;;;;;5145403;28;20452;-46
2023/08/16 10:28:32;;;;;;;3.33;2.40;;;26.80;83.30;;;;;;5142099;28;20441;-46
2023/08/16 10:31:06;;;;;;;3.63;3.33;;;26.60;83.50;;;;;;5141698;28;20480;-49
2023/08/16 10:33:43;;;;;;;2.37;2.27;;;26.50;84.10;;;;;;5132833;28;20463;-48
2023/08/16 10:36:16;;;;;;;2.40;2.20;;;26.60;83.70;;;;;;5141431;28;20468;-48
2023/08/16 10:38:54;;;;;;;5.90;2.30;;;26.70;82.90;;;;;;5146768;28;20523;-48
2023/08/16 10:41:25;;;;;;;3.23;2.73;;;26.80;84.00;;;;;;5127442;28;20468;-48
2023/08/16 10:43:56;;;;;;;2.50;2.40;;;26.80;85.70;;;;;;5142715;28;20789;-47
2023/08/16 10:46:33;;;;;;;2.70;2.50;;;26.80;86.20;;;;;;5126129;28;20185;-46
2023/08/16 10:49:06;;;;;;;2.80;2.60;;;26.70;86.20;;;;;;5130092;28;20190;-46
2023/08/16 10:51:53;;;;;;;2.40;2.30;;;26.40;85.50;;;;;;5126491;28;20474;-46
2023/08/16 10:54:35;;;;;;;3.13;2.70;;;26.20;87.40;;;;;;5125344;28;20457;-48
2023/08/16 10:57:07;;;;;;;2.70;2.23;;;26.30;85.90;;;;;;5137362;28;20515;-48
2023/08/16 10:59:41;;;;;;;2.33;2.17;;;26.50;84.60;;;;;;5122561;28;20453;-47
2023/08/16 11:02:17;;;;;;;4.77;3.50;;;26.50;83.40;;;;;;5139067;28;20471;-48
2023/08/16 11:04:48;;;;;;;3.23;2.63;;;26.70;83.30;;;;;;5141139;28;20437;-47
2023/08/16 11:07:19;;;;;;;2.40;2.30;;;26.90;84.80;;;;;;5122735;28;21551;-47
2023/08/16 11:09:50;;;;;;;3.80;2.63;;;26.80;83.30;;;;;;5129024;28;20178;-47
2023/08/16 11:12:27;;;;;;;3.33;2.57;;;26.80;84.20;;;;;;5123875;28;20500;-48
2023/08/16 11:14:58;;;;;;;3.17;2.90;;;27.10;84.50;;;;;;5140456;28;20201;-48
2023/08/16 11:17:30;;;;;;;2.80;2.50;;;27.50;84.00;;;;;;5140760;28;20810;-47
2023/08/16 11:20:01;;;;;;;4.03;2.67;;;27.80;83.80;;;;;;5125305;28;20842;-48
2023/08/16 11:22:32;;;;;;;5.03;2.67;;;28.20;82.00;;;;;;5126395;28;20475;-47
2023/08/16 11:25:03;;;;;;;2.73;2.53;;;28.30;82.10;;;;;;5124507;28;20443;-47
2023/08/16 11:27:34;;;;;;;3.27;2.60;;;28.40;81.70;;;;;;5142334;28;20437;-47
2023/08/16 11:30:05;;;;;;;2.97;2.67;;;28.50;78.80;;;;;;5142404;28;20185;-48
2023/08/16 11:32:38;;;;;;;2.40;2.30;;;28.50;79.00;;;;;;5128271;28;20201;-47
2023/08/16 11:35:11;;;;;;;2.73;2.33;;;28.20;75.30;;;;;;5125351;28;20922;-47
2023/08/16 11:37:42;;;;;;;2.67;2.23;;;28.20;74.70;;;;;;5134885;28;20470;-47
2023/08/16 11:40:13;;;;;;;2.70;2.50;;;28.40;75.90;;;;;;5141905;28;20446;-47
2023/08/16 11:42:43;;;;;;;2.40;2.30;;;28.60;74.60;;;;;;5141788;28;20240;-47
2023/08/16 11:45:22;;;;;;;4.87;2.60;;;28.70;74.30;;;;;;5142095;28;20236;-47
2023/08/16 11:47:54;;;;;;;3.27;2.53;;;28.70;74.50;;;;;;5141933;28;20185;-48
2023/08/16 11:50:26;;;;;;;2.90;2.70;;;28.80;75.00;;;;;;5135677;28;20456;-48
2023/08/16 11:53:04;;;;;;;2.47;2.30;;;28.90;73.80;;;;;;5120084;28;20448;-48
2023/08/16 11:55:35;;;;;;;2.90;2.70;;;28.90;72.90;;;;;;5141547;28;20444;-46
2023/08/16 11:58:10;;;;;;;3.17;2.27;;;29.00;72.40;;;;;;5120827;28;20506;-47
2023/08/16 12:00:42;;;;;;;2.37;2.27;;;28.90;72.10;;;;;;5138742;28;20978;-47
2023/08/16 12:03:14;;;;;;;2.37;2.27;;;28.70;72.40;;;;;;5136036;28;20468;-48
2023/08/16 12:05:49;;;;;;;2.73;2.50;;;28.60;73.70;;;;;;5147827;28;20538;-47
2023/08/16 12:08:21;;;;;;;3.80;2.50;;;28.80;72.50;;;;;;5130701;28;20809;-48
2023/08/16 12:10:55;;;;;;;3.23;2.93;;;29.00;72.20;;;;;;5143491;28;20447;-48
2023/08/16 12:13:26;;;;;;;2.07;1.97;;;29.30;71.20;;;;;;5126259;28;20440;-54
2023/08/16 12:15:57;;;;;;;2.70;2.60;;;28.90;70.00;;;;;;5141136;28;20441;-47
2023/08/16 12:18:27;;;;;;;2.10;1.90;;;28.60;71.70;;;;;;5129121;28;20198;-48
2023/08/16 12:20:59;;;;;;;3.87;2.50;;;28.30;71.40;;;;;;5129714;28;20303;-48
2023/08/16 12:23:30;;;;;;;2.00;1.90;;;28.00;72.10;;;;;;5139975;28;20221;-47
2023/08/16 12:26:00;;;;;;;2.40;2.20;;;27.70;72.60;;;;;;5145303;28;20464;-48
2023/08/16 12:28:31;;;;;;;2.43;2.33;;;27.50;74.20;;;;;;5145481;28;20971;-47
2023/08/16 12:31:02;;;;;;;5.37;2.83;;;27.30;75.10;;;;;;5139960;28;20543;-48
2023/08/16 12:33:32;;;;;;;2.73;2.53;;;27.30;76.40;;;;;;5140195;28;20257;-46
2023/08/16 12:36:03;;;;;;;9.13;4.30;;;27.40;77.00;;;;;;5142888;28;20185;-47
2023/08/16 12:38:34;;;;;;;3.53;2.90;;;27.50;77.30;;;;;;5147301;28;20701;-48
2023/08/16 12:41:07;;;;;;;3.13;2.60;;;27.40;76.60;;;;;;5146262;28;20452;-47
2023/08/16 12:43:37;;;;;;;8.20;5.70;;;27.40;77.10;;;;;;5153368;28;20197;-48
2023/08/16 12:46:09;;;;;;;5.83;3.70;;;27.40;79.20;;;;;;5146147;28;20436;-48
2023/08/16 12:48:40;;;;;;;3.53;2.73;;;27.30;79.00;;;;;;5132081;28;20218;-49
2023/08/16 12:51:10;;;;;;;8.20;3.40;;;27.40;78.50;;;;;;5144769;28;20555;-47
2023/08/16 12:53:43;;;;;;;2.57;2.47;;;27.40;77.90;;;;;;5142776;28;20356;-47
2023/08/16 12:56:13;;;;;;;3.70;2.83;;;27.40;77.60;;;;;;5128781;28;20228;-48
2023/08/16 12:58:44;;;;;;;2.60;2.30;;;27.50;77.20;;;;;;5142532;28;20473;-47
2023/08/16 13:01:15;;;;;;;2.40;2.30;;;27.60;76.60;;;;;;5132329;28;20201;-48
2023/08/16 13:03:46;;;;;;;5.17;3.20;;;27.90;77.00;;;;;;5145056;28;20197;-48
2023/08/16 13:06:17;;;;;;;3.40;2.80;;;28.30;75.60;;;;;;5144079;28;20203;-49
2023/08/16 13:08:47;;;;;;;3.80;2.70;;;28.40;74.20;;;;;;5144945;28;20428;-47